Time;durP1;ratioP1;P1;durP2;ratioP2;P2;SDS_P1;SDS_P2;PMS_P1;PMS_P2;Temp;Humidity;BMP_temperature;BMP_pressure;BME280_temperature;BME280_humidity;BME280_pressure;Samples;Min_cycle;Max_cycle;Signal;HPM_P1;HPM_P2
2022/05/01 00:00:46;;;;;;;25.13;22.50;;;12.30;99.90;;;;;;5057144;28;20162;-71
2022/05/01 00:06:01;;;;;;;29.40;25.60;;;12.20;99.90;;;;;;5036723;28;20183;-71
2022/05/01 00:08:27;;;;;;;30.40;25.57;;;12.00;99.90;;;;;;5036570;28;20442;-71
2022/05/01 00:10:54;;;;;;;30.00;26.23;;;12.20;99.90;;;;;;5036963;28;20412;-71
2022/05/01 00:13:21;;;;;;;30.07;25.60;;;12.00;99.90;;;;;;5036748;28;20405;-71
2022/05/01 00:15:47;;;;;;;32.93;28.37;;;11.90;99.90;;;;;;5037057;28;20895;-72
2022/05/01 00:18:13;;;;;;;35.60;28.00;;;12.10;99.90;;;;;;5018720;28;20951;-70
2022/05/01 00:20:39;;;;;;;34.50;27.47;;;12.00;99.90;;;;;;5036227;28;20930;-72
2022/05/01 00:23:05;;;;;;;35.63;28.63;;;11.90;99.90;;;;;;5036224;28;20168;-71
2022/05/01 00:25:31;;;;;;;35.37;28.80;;;12.00;99.90;;;;;;5018848;28;20482;-71
2022/05/01 00:27:58;;;;;;;37.53;32.23;;;11.90;99.90;;;;;;5036514;28;20226;-71
2022/05/01 00:30:26;;;;;;;32.80;27.60;;;11.80;99.90;;;;;;5036550;28;20476;-71
2022/05/01 00:38:20;;;;;;;34.50;28.17;;;12.00;99.90;;;;;;5056623;28;20764;-71
2022/05/01 00:40:46;;;;;;;34.30;27.60;;;12.20;99.90;;;;;;5057011;28;20401;-71
2022/05/01 00:43:11;;;;;;;30.87;26.83;;;12.20;99.90;;;;;;5056133;28;20171;-71
2022/05/01 00:45:37;;;;;;;32.50;26.53;;;12.00;99.90;;;;;;5056490;28;20581;-71
2022/05/01 00:48:03;;;;;;;33.13;26.67;;;11.80;99.90;;;;;;5038100;28;20285;-71
2022/05/01 00:50:29;;;;;;;30.93;26.80;;;11.90;99.90;;;;;;5055858;28;20240;-71
2022/05/01 00:52:55;;;;;;;32.87;28.10;;;12.10;99.90;;;;;;5055124;28;20958;-71
2022/05/01 00:55:21;;;;;;;33.37;27.50;;;12.10;99.90;;;;;;5055686;28;20401;-71
2022/05/01 00:57:47;;;;;;;34.30;28.50;;;12.20;99.90;;;;;;5055667;28;20167;-71
2022/05/01 01:00:26;;;;;;;29.17;25.27;;;12.20;99.90;;;;;;5055800;28;20494;-72
2022/05/01 01:02:51;;;;;;;27.23;24.27;;;12.20;99.90;;;;;;5056430;28;20381;-71
2022/05/01 01:05:17;;;;;;;29.60;25.90;;;12.30;99.90;;;;;;5036746;28;20987;-70
2022/05/01 01:07:43;;;;;;;31.90;27.47;;;12.40;99.90;;;;;;5084029;22;20303;-75
2022/05/01 01:10:09;;;;;;;34.83;29.30;;;12.40;99.90;;;;;;5075247;28;20242;-74
2022/05/01 01:12:56;;;;;;;27.10;24.20;;;12.50;99.90;;;;;;5074998;28;20159;-74
2022/05/01 01:15:28;;;;;;;31.37;25.10;;;12.40;99.90;;;;;;5074963;28;20419;-74
2022/05/01 01:17:54;;;;;;;31.90;27.27;;;12.30;99.90;;;;;;5073757;28;20959;-74
2022/05/01 01:20:25;;;;;;;36.57;29.20;;;12.30;99.90;;;;;;5057042;28;20408;-74
2022/05/01 01:22:53;;;;;;;32.27;27.63;;;12.20;99.90;;;;;;5074518;28;20397;-74
2022/05/01 01:25:22;;;;;;;28.90;25.50;;;12.30;99.90;;;;;;5074913;28;20784;-74
2022/05/01 01:27:49;;;;;;;28.20;25.20;;;12.40;99.90;;;;;;5074766;28;20412;-74
2022/05/01 01:33:17;;;;;;;34.40;28.97;;;12.20;99.90;;;;;;4974116;28;20418;-74
2022/05/01 01:35:45;;;;;;;32.40;27.77;;;12.30;99.90;;;;;;5036805;28;20408;-74
2022/05/01 01:38:11;;;;;;;35.13;29.30;;;12.20;99.90;;;;;;5074180;28;20942;-74
2022/05/01 01:40:45;;;;;;;38.57;29.40;;;12.20;99.90;;;;;;5074755;28;20406;-74
2022/05/01 01:43:12;;;;;;;38.93;29.50;;;12.00;99.90;;;;;;5074613;28;20519;-74
2022/05/01 01:45:37;;;;;;;37.63;29.33;;;12.00;99.90;;;;;;5074626;28;20401;-74
2022/05/01 01:48:13;;;;;;;36.10;27.87;;;12.00;99.90;;;;;;5074157;28;20448;-74
2022/05/01 01:50:40;;;;;;;35.20;28.33;;;12.00;99.90;;;;;;5075040;28;20167;-74
2022/05/01 01:53:07;;;;;;;37.30;30.03;;;12.10;99.90;;;;;;5073992;28;20408;-74
2022/05/01 01:55:33;;;;;;;35.63;28.70;;;12.00;99.90;;;;;;5074996;28;20447;-74
2022/05/01 01:58:00;;;;;;;29.00;24.90;;;12.00;99.90;;;;;;5074473;28;20464;-75
2022/05/01 02:00:26;;;;;;;34.60;27.53;;;12.10;99.90;;;;;;5074798;28;20243;-75
2022/05/01 02:02:59;;;;;;;33.83;26.93;;;12.10;99.90;;;;;;5074432;28;20438;-74
2022/05/01 02:05:26;;;;;;;31.10;27.20;;;12.20;99.90;;;;;;5074753;28;20411;-74
2022/05/01 02:07:52;;;;;;;33.43;26.70;;;12.20;99.90;;;;;;5072776;28;20465;-75
2022/05/01 02:10:18;;;;;;;30.60;25.90;;;12.20;99.90;;;;;;5075230;28;20473;-74
2022/05/01 02:12:43;;;;;;;37.93;29.63;;;12.20;99.90;;;;;;5077455;28;21006;-74
2022/05/01 02:15:09;;;;;;;32.47;27.27;;;12.10;99.90;;;;;;5074933;28;20484;-74
2022/05/01 02:17:35;;;;;;;34.20;28.83;;;12.00;99.90;;;;;;5073783;28;20646;-74
2022/05/01 02:20:01;;;;;;;33.77;29.30;;;11.80;99.90;;;;;;5073752;28;20420;-74
2022/05/01 02:22:27;;;;;;;34.63;25.33;;;12.00;99.90;;;;;;5074047;28;20184;-74
2022/05/01 02:24:54;;;;;;;33.70;26.67;;;11.90;99.90;;;;;;5074047;28;20420;-74
2022/05/01 02:27:20;;;;;;;37.20;30.13;;;12.00;99.90;;;;;;5055954;28;20174;-73
2022/05/01 02:29:46;;;;;;;30.63;25.80;;;12.10;99.90;;;;;;5056020;28;20495;-74
2022/05/01 02:32:12;;;;;;;32.03;25.27;;;12.20;99.90;;;;;;5073931;28;20167;-74
2022/05/01 02:34:37;;;;;;;29.00;25.57;;;12.10;99.90;;;;;;5073679;28;20524;-74
2022/05/01 02:37:03;;;;;;;30.50;26.57;;;12.10;99.90;;;;;;5073898;28;20401;-74
2022/05/01 02:39:28;;;;;;;30.90;26.70;;;12.10;99.90;;;;;;5055768;28;20642;-74
2022/05/01 02:41:56;;;;;;;30.83;25.70;;;12.00;99.90;;;;;;5074755;28;20253;-74
2022/05/01 02:44:21;;;;;;;36.67;29.70;;;12.00;99.90;;;;;;5074043;28;20170;-74
2022/05/01 02:46:47;;;;;;;36.10;27.57;;;11.90;99.90;;;;;;5056053;28;20554;-74
2022/05/01 02:49:14;;;;;;;30.63;26.53;;;12.00;99.90;;;;;;5073660;28;20223;-74
2022/05/01 02:51:39;;;;;;;33.00;27.93;;;11.90;99.90;;;;;;5073941;28;20191;-74
2022/05/01 02:54:05;;;;;;;31.93;28.00;;;11.90;99.90;;;;;;5073436;28;20976;-74
2022/05/01 02:56:31;;;;;;;30.63;25.43;;;11.90;99.90;;;;;;5073390;28;20174;-74
2022/05/01 02:58:57;;;;;;;34.80;26.20;;;11.80;99.90;;;;;;5073397;28;20216;-74
2022/05/01 03:01:23;;;;;;;35.30;28.73;;;11.80;99.90;;;;;;5073238;28;20167;-75
2022/05/01 03:03:49;;;;;;;31.83;26.00;;;11.70;99.90;;;;;;5073270;28;20412;-74
2022/05/01 03:06:15;;;;;;;36.40;28.37;;;11.70;99.90;;;;;;5073549;28;20459;-75
2022/05/01 03:08:41;;;;;;;37.70;28.40;;;11.70;99.90;;;;;;5072651;28;20475;-74
2022/05/01 03:11:06;;;;;;;31.13;26.10;;;11.70;99.90;;;;;;5055137;28;20270;-74
2022/05/01 03:13:32;;;;;;;33.03;27.33;;;11.60;99.90;;;;;;5073334;28;20572;-74
2022/05/01 03:15:58;;;;;;;40.13;30.77;;;11.60;99.90;;;;;;5073129;28;20183;-73
2022/05/01 03:23:52;;;;;;;45.37;30.00;;;11.10;99.90;;;;;;5072452;28;20446;-74
2022/05/01 03:26:18;;;;;;;41.57;30.70;;;11.20;99.90;;;;;;5055581;28;20928;-74
2022/05/01 03:28:48;;;;;;;43.47;31.47;;;11.20;99.90;;;;;;5073827;28;20194;-73
2022/05/01 03:31:15;;;;;;;39.40;30.23;;;11.20;99.90;;;;;;5078036;28;20810;-74
2022/05/01 03:33:42;;;;;;;45.27;31.97;;;11.20;99.90;;;;;;5078204;28;20403;-73
2022/05/01 03:36:09;;;;;;;37.13;30.50;;;11.30;99.90;;;;;;5059239;28;20409;-73
2022/05/01 03:38:39;;;;;;;39.30;31.63;;;11.30;99.90;;;;;;5076767;28;20491;-74
2022/05/01 03:41:06;;;;;;;40.23;32.60;;;11.30;99.90;;;;;;5076995;28;20411;-74
2022/05/01 03:43:33;;;;;;;36.37;29.40;;;11.10;99.90;;;;;;5077242;28;20490;-73
2022/05/01 03:46:00;;;;;;;46.37;31.77;;;11.20;99.90;;;;;;5060662;28;20440;-73
2022/05/01 03:48:26;;;;;;;43.27;32.07;;;11.40;99.90;;;;;;5077447;28;20459;-74
2022/05/01 03:50:52;;;;;;;40.67;29.67;;;11.50;99.90;;;;;;5078399;28;20418;-74
2022/05/01 03:53:21;;;;;;;42.23;31.93;;;11.70;99.90;;;;;;5076615;28;20431;-74
2022/05/01 03:55:48;;;;;;;38.33;30.30;;;11.70;99.90;;;;;;5077466;28;20411;-74
2022/05/01 03:58:14;;;;;;;35.40;29.27;;;11.50;99.90;;;;;;5077116;28;20890;-74
2022/05/01 04:00:44;;;;;;;39.97;30.50;;;11.40;99.90;;;;;;5076954;28;20400;-74
2022/05/01 04:03:11;;;;;;;36.97;28.47;;;11.40;99.90;;;;;;5076873;28;20786;-74
2022/05/01 04:05:38;;;;;;;37.60;29.70;;;11.40;99.90;;;;;;5076680;28;20432;-74
2022/05/01 04:08:04;;;;;;;46.43;32.73;;;11.40;99.90;;;;;;5075719;28;20499;-75
2022/05/01 04:10:29;;;;;;;40.40;30.30;;;11.20;99.90;;;;;;5059610;28;20400;-75
2022/05/01 04:12:55;;;;;;;45.17;33.87;;;11.20;99.90;;;;;;5077744;28;20403;-75
2022/05/01 04:15:22;;;;;;;40.40;31.70;;;11.10;99.90;;;;;;5079835;28;20170;-74
2022/05/01 04:17:48;;;;;;;40.50;30.57;;;11.20;99.90;;;;;;5079092;28;20193;-74
2022/05/01 04:20:16;;;;;;;41.47;32.43;;;11.30;99.90;;;;;;5076283;28;20424;-74
2022/05/01 04:22:47;;;;;;;38.90;30.13;;;11.30;99.90;;;;;;5057723;28;20493;-76
2022/05/01 04:25:23;;;;;;;39.03;30.00;;;11.40;99.90;;;;;;5058189;28;20403;-74
2022/05/01 04:27:55;;;;;;;36.90;29.67;;;11.40;99.90;;;;;;5057256;28;21011;-75
2022/05/01 04:30:22;;;;;;;39.80;30.07;;;11.50;99.90;;;;;;5076347;28;20389;-75
2022/05/01 04:32:58;;;;;;;40.10;28.43;;;11.60;99.90;;;;;;5076143;28;20391;-75
2022/05/01 04:35:29;;;;;;;39.20;29.83;;;11.60;99.90;;;;;;5074867;28;20788;-74
2022/05/01 04:38:01;;;;;;;37.20;29.80;;;11.50;99.90;;;;;;5057725;28;20978;-75
2022/05/01 04:40:33;;;;;;;37.57;28.83;;;11.50;99.90;;;;;;5073011;28;20404;-75
2022/05/01 04:43:19;;;;;;;36.77;28.73;;;11.50;99.90;;;;;;5076105;28;20381;-75
2022/05/01 04:45:49;;;;;;;31.93;25.57;;;11.40;99.90;;;;;;5075596;28;20397;-74
2022/05/01 04:48:17;;;;;;;37.90;28.17;;;11.50;99.90;;;;;;5075803;28;20459;-75
2022/05/01 04:50:44;;;;;;;35.57;27.83;;;11.60;99.90;;;;;;5075481;28;20548;-75
2022/05/01 04:53:11;;;;;;;30.70;25.40;;;11.40;99.90;;;;;;5075838;28;20399;-75
2022/05/01 04:55:39;;;;;;;34.63;27.10;;;11.40;99.90;;;;;;5075467;28;20404;-74
2022/05/01 04:58:05;;;;;;;32.23;27.67;;;11.50;99.90;;;;;;5075636;28;20509;-75
2022/05/01 05:00:31;;;;;;;33.80;28.03;;;11.50;99.90;;;;;;5074243;28;20562;-75
2022/05/01 05:02:57;;;;;;;32.23;28.20;;;11.30;99.90;;;;;;5075538;28;20419;-75
2022/05/01 05:05:23;;;;;;;37.50;30.00;;;11.30;99.90;;;;;;5073691;28;20420;-75
2022/05/01 05:07:49;;;;;;;34.47;29.07;;;11.40;99.90;;;;;;5075280;28;20212;-74
2022/05/01 05:10:16;;;;;;;33.50;26.03;;;11.30;99.90;;;;;;5075368;28;20419;-75
2022/05/01 05:12:43;;;;;;;32.87;28.47;;;11.30;99.90;;;;;;5057334;28;20420;-72
2022/05/01 05:15:15;;;;;;;34.70;29.33;;;11.10;99.90;;;;;;5075350;28;20417;-75
2022/05/01 05:17:42;;;;;;;35.60;28.43;;;11.00;99.90;;;;;;5075092;28;20881;-75
2022/05/01 05:20:10;;;;;;;37.50;28.13;;;11.10;99.90;;;;;;5074932;28;20411;-73
2022/05/01 05:22:36;;;;;;;36.00;28.67;;;11.20;99.90;;;;;;5057155;28;20414;-75
2022/05/01 05:25:04;;;;;;;33.00;27.20;;;11.30;99.90;;;;;;5075063;28;20419;-75
2022/05/01 05:27:30;;;;;;;33.07;28.53;;;11.60;99.90;;;;;;5074747;28;20493;-75
2022/05/01 05:29:56;;;;;;;33.43;27.57;;;11.50;99.90;;;;;;5073832;28;20864;-73
2022/05/01 05:32:24;;;;;;;39.90;30.10;;;11.50;99.90;;;;;;5056388;28;20773;-75
2022/05/01 05:34:50;;;;;;;38.13;30.00;;;11.60;99.90;;;;;;5073576;28;20416;-75
2022/05/01 05:37:17;;;;;;;40.47;30.73;;;11.40;99.90;;;;;;5074737;28;20413;-75
2022/05/01 05:39:44;;;;;;;37.37;29.87;;;11.40;99.90;;;;;;5074647;28;20407;-75
2022/05/01 05:42:10;;;;;;;41.70;32.27;;;11.20;99.90;;;;;;5074598;28;20409;-75
2022/05/01 05:44:36;;;;;;;33.20;27.00;;;11.30;99.90;;;;;;5074465;28;20436;-75
2022/05/01 05:47:02;;;;;;;32.00;27.33;;;11.50;99.90;;;;;;5074847;28;20409;-75
2022/05/01 05:49:27;;;;;;;32.33;27.43;;;11.70;99.90;;;;;;5074047;28;20448;-75
2022/05/01 05:51:53;;;;;;;36.50;29.80;;;11.60;99.90;;;;;;5074006;28;20410;-75
2022/05/01 05:54:19;;;;;;;31.63;27.47;;;11.40;99.90;;;;;;5074529;28;20479;-75
2022/05/01 05:56:44;;;;;;;32.43;27.40;;;11.20;99.90;;;;;;5074367;28;20227;-74
2022/05/01 05:59:11;;;;;;;32.00;28.50;;;11.10;99.90;;;;;;5073151;28;20225;-74
2022/05/01 06:01:37;;;;;;;31.97;26.50;;;11.40;99.90;;;;;;5073911;28;20168;-74
2022/05/01 06:04:03;;;;;;;30.07;26.17;;;11.40;99.90;;;;;;5074414;28;20760;-74
2022/05/01 06:06:29;;;;;;;37.93;30.63;;;11.70;99.90;;;;;;5072775;28;20763;-74
2022/05/01 06:08:55;;;;;;;32.37;27.37;;;11.90;99.90;;;;;;5073846;28;20512;-74
2022/05/01 06:11:20;;;;;;;30.50;26.50;;;11.80;99.90;;;;;;5074279;28;20224;-74
2022/05/01 06:13:46;;;;;;;28.93;25.77;;;11.50;99.90;;;;;;5074025;28;20184;-74
2022/05/01 06:16:11;;;;;;;32.10;28.07;;;11.30;99.90;;;;;;5073905;28;20173;-74
2022/05/01 06:18:37;;;;;;;34.67;26.87;;;11.30;99.90;;;;;;5073976;28;20658;-74
2022/05/01 06:21:03;;;;;;;32.87;27.00;;;11.40;99.90;;;;;;5073820;28;20170;-74
2022/05/01 06:23:28;;;;;;;34.63;29.30;;;11.50;99.90;;;;;;5072958;28;20178;-74
2022/05/01 06:25:55;;;;;;;31.97;26.97;;;11.70;99.90;;;;;;5055351;28;20179;-74
2022/05/01 06:28:20;;;;;;;29.57;24.20;;;11.90;99.90;;;;;;5073305;28;20207;-74
2022/05/01 06:30:48;;;;;;;32.97;27.43;;;12.00;99.90;;;;;;5073142;28;20763;-75
2022/05/01 06:33:16;;;;;;;33.53;26.93;;;12.20;99.90;;;;;;5073702;28;20185;-75
2022/05/01 06:35:49;;;;;;;28.73;24.43;;;12.20;99.90;;;;;;5073637;28;20483;-75
2022/05/01 06:38:15;;;;;;;30.73;26.50;;;12.20;99.90;;;;;;5073452;28;20424;-75
2022/05/01 06:40:43;;;;;;;29.50;25.67;;;12.10;99.90;;;;;;5073787;28;20409;-75
2022/05/01 06:43:10;;;;;;;27.40;24.10;;;12.30;99.90;;;;;;5073756;28;20177;-75
2022/05/01 06:45:36;;;;;;;33.87;27.70;;;12.30;99.90;;;;;;5072898;28;20393;-75
2022/05/01 06:48:02;;;;;;;31.50;25.27;;;12.30;99.90;;;;;;5073086;28;20473;-75
2022/05/01 06:50:28;;;;;;;27.43;24.33;;;12.50;99.90;;;;;;5073744;28;20178;-76
2022/05/01 06:52:55;;;;;;;28.27;25.17;;;12.40;99.90;;;;;;5073195;28;20185;-75
2022/05/01 06:55:23;;;;;;;28.63;24.70;;;12.40;99.90;;;;;;5073623;28;20456;-74
2022/05/01 06:57:48;;;;;;;28.73;23.90;;;12.60;99.90;;;;;;5073120;28;20430;-75
2022/05/01 07:00:15;;;;;;;29.20;25.30;;;12.60;99.90;;;;;;5073128;28;20427;-75
2022/05/01 07:02:47;;;;;;;30.10;26.90;;;12.70;99.90;;;;;;5072566;28;20174;-75
2022/05/01 07:05:13;;;;;;;30.43;26.50;;;12.60;99.90;;;;;;5073138;28;20499;-74
2022/05/01 07:10:13;;;;;;;29.30;26.20;;;12.80;99.90;;;;;;5053320;28;20220;-72
2022/05/01 07:12:38;;;;;;;26.73;23.63;;;12.70;99.90;;;;;;5054080;28;20413;-71
2022/05/01 07:15:05;;;;;;;29.40;25.80;;;12.80;99.90;;;;;;5053714;28;20961;-70
2022/05/01 07:17:32;;;;;;;27.50;24.50;;;12.80;99.90;;;;;;5053709;28;20166;-71
2022/05/01 07:19:58;;;;;;;29.03;23.67;;;12.80;99.90;;;;;;5035422;28;20448;-70
2022/05/01 07:22:24;;;;;;;27.07;23.97;;;12.80;99.90;;;;;;5053104;28;20398;-71
2022/05/01 07:24:50;;;;;;;31.60;24.80;;;13.10;99.90;;;;;;5053098;28;20402;-71
2022/05/01 07:27:15;;;;;;;26.60;23.70;;;13.00;99.90;;;;;;5036371;28;20417;-70
2022/05/01 07:29:41;;;;;;;31.63;26.30;;;13.00;99.90;;;;;;5053361;28;20203;-71
2022/05/01 07:32:07;;;;;;;25.87;23.03;;;13.00;99.90;;;;;;5053675;28;20176;-71
2022/05/01 07:34:33;;;;;;;31.30;23.83;;;13.10;99.90;;;;;;5053301;28;20164;-71
2022/05/01 07:36:59;;;;;;;30.50;24.57;;;13.40;99.90;;;;;;5053301;28;20408;-71
2022/05/01 07:39:24;;;;;;;25.07;22.13;;;13.70;99.90;;;;;;5038356;28;20433;-71
2022/05/01 07:41:50;;;;;;;25.57;22.80;;;13.80;99.90;;;;;;5053216;28;20174;-71
2022/05/01 07:44:15;;;;;;;24.47;21.60;;;13.60;99.90;;;;;;5053179;28;20166;-70
2022/05/01 07:46:42;;;;;;;25.87;23.17;;;13.80;99.90;;;;;;5053768;28;20165;-71
2022/05/01 07:49:10;;;;;;;23.70;21.30;;;13.80;99.90;;;;;;5052613;28;20300;-71
2022/05/01 07:51:36;;;;;;;23.67;21.03;;;13.70;99.90;;;;;;5053371;28;20401;-71
2022/05/01 07:54:04;;;;;;;24.70;21.97;;;13.70;99.90;;;;;;5052095;28;20428;-71
2022/05/01 07:56:30;;;;;;;25.67;23.00;;;13.80;99.90;;;;;;5035367;28;20451;-71
2022/05/01 07:58:56;;;;;;;25.00;22.30;;;13.80;99.90;;;;;;5053570;28;20431;-70
2022/05/01 08:01:22;;;;;;;26.57;23.77;;;13.70;99.90;;;;;;5053104;28;20481;-71
2022/05/01 08:06:32;;;;;;;25.90;21.67;;;13.80;99.90;;;;;;5053654;28;20630;-70
2022/05/01 08:08:58;;;;;;;27.73;24.27;;;13.50;99.90;;;;;;5052468;28;20549;-71
2022/05/01 08:11:24;;;;;;;24.90;21.80;;;13.50;99.90;;;;;;5053499;28;20792;-70
2022/05/01 08:13:49;;;;;;;28.23;25.33;;;13.80;99.90;;;;;;5052031;28;20549;-71
2022/05/01 08:16:17;;;;;;;22.90;20.53;;;13.80;99.90;;;;;;5056726;28;20159;-71
2022/05/01 08:21:29;;;;;;;24.13;20.60;;;14.10;99.90;;;;;;5056673;28;20822;-71
2022/05/01 08:23:54;;;;;;;22.90;20.50;;;14.10;99.90;;;;;;5045108;28;20459;-71
2022/05/01 08:26:21;;;;;;;23.60;21.20;;;13.70;99.90;;;;;;5056731;28;20408;-71
2022/05/01 08:28:47;;;;;;;25.20;21.40;;;13.50;99.90;;;;;;5056921;28;20580;-71
2022/05/01 08:31:13;;;;;;;22.90;20.50;;;13.70;99.90;;;;;;5053930;28;20423;-75
2022/05/01 08:33:39;;;;;;;23.20;20.73;;;14.10;99.90;;;;;;5046945;28;20175;-72
2022/05/01 08:36:06;;;;;;;24.33;22.00;;;14.40;99.90;;;;;;5046975;28;20436;-74
2022/05/01 08:38:32;;;;;;;21.43;19.33;;;14.40;99.90;;;;;;5029117;28;20448;-71
2022/05/01 08:40:58;;;;;;;21.00;18.80;;;14.10;99.90;;;;;;5046580;28;20417;-72
2022/05/01 08:43:25;;;;;;;21.40;19.10;;;13.80;99.90;;;;;;5054524;28;20428;-70
2022/05/01 08:46:12;;;;;;;19.23;17.10;;;13.80;99.90;;;;;;5056435;28;20432;-70
2022/05/01 08:48:58;;;;;;;22.33;19.23;;;13.70;99.90;;;;;;5054889;28;20459;-70
2022/05/01 08:51:24;;;;;;;26.23;23.43;;;14.00;99.90;;;;;;5056102;28;20382;-70
2022/05/01 08:53:51;;;;;;;22.33;19.90;;;13.90;99.90;;;;;;5056058;28;20407;-70
2022/05/01 08:56:18;;;;;;;21.00;18.93;;;14.10;99.90;;;;;;5054976;28;20440;-71
2022/05/01 08:58:45;;;;;;;22.50;19.07;;;14.20;99.90;;;;;;5037729;28;20433;-70
2022/05/01 09:01:11;;;;;;;20.50;18.27;;;13.90;99.90;;;;;;5055129;28;20424;-70
2022/05/01 09:03:39;;;;;;;22.57;20.13;;;14.10;99.90;;;;;;5055219;28;20401;-70
2022/05/01 09:06:05;;;;;;;20.80;18.53;;;14.50;99.90;;;;;;5055862;28;20960;-70
2022/05/01 09:08:31;;;;;;;20.63;18.40;;;14.20;99.90;;;;;;5054062;28;20474;-70
2022/05/01 09:10:56;;;;;;;21.33;19.03;;;14.10;99.90;;;;;;5055952;28;20882;-70
2022/05/01 09:13:25;;;;;;;20.83;18.70;;;14.20;99.90;;;;;;5055608;28;20168;-70
2022/05/01 09:15:52;;;;;;;21.40;18.50;;;14.80;99.90;;;;;;5054078;28;20164;-69
2022/05/01 09:18:19;;;;;;;20.30;18.20;;;15.00;99.90;;;;;;5055694;28;20424;-70
2022/05/01 09:21:02;;;;;;;21.40;19.30;;;15.10;99.90;;;;;;5055652;28;20406;-70
2022/05/01 09:23:46;;;;;;;17.80;16.00;;;15.20;99.90;;;;;;5055359;28;20461;-70
2022/05/01 09:26:13;;;;;;;19.20;17.30;;;15.20;99.90;;;;;;5054621;28;20382;-71
2022/05/01 09:28:52;;;;;;;21.87;19.53;;;14.80;99.90;;;;;;5055097;28;20454;-70
2022/05/01 09:31:44;;;;;;;21.37;19.07;;;14.80;99.90;;;;;;5045018;28;20402;-70
2022/05/01 09:34:18;;;;;;;21.87;19.67;;;14.80;99.90;;;;;;5035154;28;20391;-70
2022/05/01 09:36:44;;;;;;;20.57;18.40;;;14.80;99.90;;;;;;5035433;28;20407;-70
2022/05/01 09:39:10;;;;;;;20.80;18.70;;;14.80;99.90;;;;;;5035296;28;20840;-70
2022/05/01 09:41:41;;;;;;;18.60;16.70;;;14.90;99.90;;;;;;5035053;28;20174;-70
2022/05/01 09:44:14;;;;;;;20.37;18.27;;;15.20;99.90;;;;;;5035507;28;20227;-69
2022/05/01 09:46:40;;;;;;;20.13;17.70;;;15.40;99.90;;;;;;5026660;28;20424;-70
2022/05/01 09:49:13;;;;;;;21.37;18.13;;;15.30;99.90;;;;;;5054715;28;20460;-70
2022/05/01 09:51:46;;;;;;;18.73;16.83;;;15.50;99.90;;;;;;5054740;28;20231;-70
2022/05/01 09:54:25;;;;;;;18.00;16.20;;;15.90;99.90;;;;;;5031590;28;20510;-70
2022/05/01 09:56:54;;;;;;;17.73;15.80;;;15.70;99.90;;;;;;5046009;28;20416;-70
2022/05/01 09:59:21;;;;;;;17.80;16.00;;;15.90;99.90;;;;;;5046254;28;21585;-72
2022/05/01 10:02:04;;;;;;;22.67;16.43;;;16.40;99.90;;;;;;5045578;28;20430;-71
2022/05/01 10:04:35;;;;;;;18.00;16.10;;;16.30;99.90;;;;;;5046038;28;20497;-71
2022/05/01 10:07:03;;;;;;;19.00;17.10;;;16.30;99.90;;;;;;5045613;28;20499;-72
2022/05/01 10:09:30;;;;;;;19.63;17.73;;;16.30;99.90;;;;;;5045162;28;20495;-71
2022/05/01 10:11:58;;;;;;;17.87;16.10;;;16.70;99.90;;;;;;5044115;28;20421;-75
2022/05/01 10:14:26;;;;;;;19.33;17.23;;;16.60;99.90;;;;;;5045427;28;20409;-73
2022/05/01 10:16:53;;;;;;;18.50;16.80;;;16.30;99.90;;;;;;5045269;28;20405;-71
2022/05/01 10:19:19;;;;;;;19.77;17.87;;;16.60;99.90;;;;;;5045147;28;20448;-72
2022/05/01 10:21:49;;;;;;;17.17;15.47;;;17.00;99.90;;;;;;5045253;28;20452;-74
2022/05/01 10:24:16;;;;;;;18.90;17.10;;;16.90;99.90;;;;;;5045325;28;20405;-73
2022/05/01 10:26:56;;;;;;;19.17;17.33;;;17.00;99.90;;;;;;5045038;28;20935;-69
2022/05/01 10:29:27;;;;;;;19.57;17.47;;;16.80;99.90;;;;;;5044655;28;20975;-74
2022/05/01 10:32:22;;;;;;;18.90;16.10;;;17.00;99.90;;;;;;5045114;28;20417;-69
2022/05/01 10:34:47;;;;;;;16.97;15.33;;;17.10;99.90;;;;;;5045308;28;21444;-70
2022/05/01 10:37:19;;;;;;;17.37;15.67;;;16.90;99.90;;;;;;5045197;28;20409;-71
2022/05/01 10:39:46;;;;;;;16.80;15.17;;;17.30;99.90;;;;;;5045348;28;20275;-71
2022/05/01 10:42:11;;;;;;;14.80;13.30;;;17.50;99.90;;;;;;5045270;28;20824;-72
2022/05/01 10:44:39;;;;;;;16.30;14.60;;;17.30;99.90;;;;;;5045348;28;20517;-72
2022/05/01 10:47:37;;;;;;;16.40;14.90;;;17.20;99.90;;;;;;5030077;28;20197;-71
2022/05/01 10:50:08;;;;;;;16.73;15.13;;;16.80;99.90;;;;;;5054114;28;20437;-71
2022/05/01 10:52:34;;;;;;;16.97;15.27;;;16.50;99.90;;;;;;5054276;28;20454;-71
2022/05/01 10:55:05;;;;;;;18.03;15.87;;;16.00;99.90;;;;;;5053545;28;20447;-72
2022/05/01 10:57:31;;;;;;;18.63;16.70;;;15.60;99.90;;;;;;5052389;28;20151;-70
2022/05/01 11:00:11;;;;;;;17.13;14.83;;;15.70;99.90;;;;;;5052955;28;20952;-71
2022/05/01 11:02:45;;;;;;;17.10;15.30;;;16.20;99.90;;;;;;5053500;28;20441;-71
2022/05/01 11:05:32;;;;;;;16.77;15.10;;;16.30;99.90;;;;;;5053440;28;20413;-71
2022/05/01 11:07:59;;;;;;;13.73;12.33;;;16.70;99.90;;;;;;5051930;28;20895;-72
2022/05/01 11:10:26;;;;;;;16.40;14.77;;;17.20;99.90;;;;;;5053754;28;20406;-71
2022/05/01 11:12:53;;;;;;;15.10;13.60;;;17.50;99.90;;;;;;5035454;28;20447;-71
2022/05/01 11:15:27;;;;;;;17.10;15.40;;;17.60;99.90;;;;;;5049883;28;20943;-72
2022/05/01 11:17:54;;;;;;;15.43;14.03;;;17.50;99.90;;;;;;5042356;28;20422;-70
2022/05/01 11:20:19;;;;;;;15.73;12.80;;;17.70;99.90;;;;;;5033588;28;20497;-70
2022/05/01 11:22:46;;;;;;;14.70;13.30;;;17.70;99.70;;;;;;5033179;28;20942;-70
2022/05/01 11:25:17;;;;;;;15.20;13.30;;;17.40;99.90;;;;;;5033431;28;20167;-70
2022/05/01 11:27:52;;;;;;;14.37;12.97;;;17.70;99.90;;;;;;5033392;28;20498;-70
2022/05/01 11:30:26;;;;;;;13.57;11.43;;;17.90;99.30;;;;;;5033155;28;20445;-71
2022/05/01 11:33:00;;;;;;;14.67;13.10;;;18.30;99.40;;;;;;5015540;28;20995;-71
2022/05/01 11:35:54;;;;;;;12.87;11.60;;;17.80;98.20;;;;;;5033322;28;20924;-71
2022/05/01 11:38:41;;;;;;;13.47;11.97;;;17.70;98.70;;;;;;5034872;28;20473;-70
2022/05/01 11:41:10;;;;;;;12.87;11.57;;;17.90;98.60;;;;;;5046005;28;20784;-70
2022/05/01 11:43:37;;;;;;;14.20;12.70;;;17.70;98.90;;;;;;5052930;28;20404;-73
2022/05/01 11:46:04;;;;;;;14.33;13.00;;;17.70;98.70;;;;;;5051893;28;20421;-70
2022/05/01 11:48:31;;;;;;;14.03;12.80;;;18.00;99.10;;;;;;5053056;28;20452;-71
2022/05/01 11:51:00;;;;;;;15.13;13.60;;;18.10;99.30;;;;;;5057166;28;20412;-72
2022/05/01 11:53:30;;;;;;;14.83;13.43;;;18.00;98.20;;;;;;5056823;28;20409;-70
2022/05/01 12:04:34;;;;;;;15.83;14.33;;;17.80;98.60;;;;;;5057218;28;20400;-71
2022/05/01 12:07:03;;;;;;;13.70;12.23;;;18.00;98.20;;;;;;5056392;28;20416;-71
2022/05/01 12:09:31;;;;;;;13.30;11.90;;;18.40;97.60;;;;;;5056548;28;20887;-71
2022/05/01 12:11:57;;;;;;;14.60;13.17;;;19.10;97.50;;;;;;5056578;28;20402;-71
2022/05/01 12:14:23;;;;;;;13.93;12.73;;;18.70;96.90;;;;;;5038898;28;20913;-70
2022/05/01 12:16:48;;;;;;;12.53;11.33;;;18.50;97.30;;;;;;5056491;28;20463;-71
2022/05/01 12:19:16;;;;;;;13.77;12.37;;;18.40;97.10;;;;;;5056501;28;20194;-71
2022/05/01 12:21:42;;;;;;;15.77;14.17;;;17.80;97.50;;;;;;5056276;28;20640;-71
2022/05/01 12:24:09;;;;;;;15.03;13.53;;;17.30;98.10;;;;;;5038664;28;20409;-70
2022/05/01 12:26:38;;;;;;;20.00;12.80;;;17.00;98.60;;;;;;5056408;28;20470;-71
2022/05/01 12:29:10;;;;;;;15.07;13.40;;;16.90;99.00;;;;;;5055970;28;21007;-71
2022/05/01 12:31:57;;;;;;;17.00;15.30;;;17.40;99.10;;;;;;5056227;28;20403;-70
2022/05/01 12:34:24;;;;;;;16.60;14.80;;;17.80;98.50;;;;;;5056430;28;20912;-71
2022/05/01 12:36:54;;;;;;;16.17;14.53;;;18.10;97.70;;;;;;5056156;28;20461;-71
2022/05/01 12:39:22;;;;;;;14.03;12.63;;;18.20;97.90;;;;;;5056217;28;20515;-71
2022/05/01 12:45:11;;;;;;;14.10;12.80;;;18.80;96.90;;;;;;5056086;28;20439;-71
2022/05/01 12:47:39;;;;;;;15.00;13.70;;;19.00;96.40;;;;;;5056235;28;20400;-71
2022/05/01 12:50:08;;;;;;;13.97;12.47;;;18.90;96.50;;;;;;5038013;28;20487;-71
2022/05/01 12:52:39;;;;;;;14.67;13.37;;;19.30;96.30;;;;;;5055770;28;20753;-71
2022/05/01 12:55:17;;;;;;;14.90;13.60;;;19.90;95.20;;;;;;5037931;28;20421;-71
2022/05/01 12:57:48;;;;;;;14.70;13.30;;;20.90;94.80;;;;;;5055586;28;20476;-71
2022/05/01 13:00:44;;;;;;;14.37;12.43;;;23.50;90.50;;;;;;5055126;28;20431;-72
2022/05/01 13:03:36;;;;;;;12.47;11.30;;;25.20;83.00;;;;;;5055753;28;20400;-71
2022/05/01 13:06:16;;;;;;;14.43;13.33;;;26.60;78.10;;;;;;5056305;28;20476;-71
2022/05/01 13:08:48;;;;;;;13.20;11.90;;;25.40;72.70;;;;;;5067520;22;20516;-75
2022/05/01 13:11:30;;;;;;;11.80;10.70;;;25.60;74.40;;;;;;5034646;28;20383;-76